createdAt,value
2018-05-10T00:01:59.563Z,76.38
2018-05-10T00:04:27.217Z,76.97
2018-05-10T00:06:54.763Z,75.93
2018-05-10T00:09:22.342Z,75.91
2018-05-10T00:11:49.870Z,76.57
2018-05-10T00:14:17.449Z,76.58
2018-05-10T00:16:45.021Z,77.44
2018-05-10T00:19:12.580Z,76.91
2018-05-10T00:21:40.203Z,77.30
2018-05-10T00:24:07.779Z,77.36
2018-05-10T00:26:35.351Z,76.72
2018-05-10T00:29:03.012Z,77.72
2018-05-10T00:31:30.536Z,78.44
2018-05-10T00:33:58.436Z,79.25
2018-05-10T00:36:25.997Z,82.79
2018-05-10T00:38:53.576Z,83.79
2018-05-10T00:41:21.116Z,80.82
2018-05-10T00:43:48.714Z,81.24
2018-05-10T00:46:16.249Z,81.34
2018-05-10T00:48:43.904Z,78.96
2018-05-10T00:51:11.493Z,78.76
2018-05-10T00:53:39.434Z,78.58
2018-05-10T00:56:06.990Z,79.03
2018-05-10T00:58:34.657Z,79.07
2018-05-10T01:01:02.207Z,79.77
2018-05-10T01:03:29.793Z,80.22
2018-05-10T01:05:57.369Z,80.02
2018-05-10T01:08:24.928Z,79.77
2018-05-10T01:10:52.504Z,79.30
2018-05-10T01:13:20.024Z,80.31
2018-05-10T01:15:47.576Z,81.90
2018-05-10T01:18:15.106Z,79.72
2018-05-10T01:20:42.705Z,79.26
2018-05-10T01:23:10.233Z,80.48
2018-05-10T01:25:37.834Z,79.54
2018-05-10T01:28:05.390Z,81.10
2018-05-10T01:30:32.965Z,79.69
2018-05-10T01:33:00.492Z,80.68
2018-05-10T01:35:39.908Z,80.44
2018-05-10T01:38:07.447Z,81.40
2018-05-10T01:40:35.025Z,80.92
2018-05-10T01:43:02.552Z,79.50
2018-05-10T01:45:30.129Z,78.98
2018-05-10T01:47:57.654Z,79.18
2018-05-10T01:50:25.211Z,78.83
2018-05-10T01:52:52.758Z,79.89
2018-05-10T01:55:20.363Z,79.81
2018-05-10T01:57:47.890Z,80.33
2018-05-10T02:00:15.567Z,80.11
2018-05-10T02:02:43.177Z,80.15
2018-05-10T02:05:10.770Z,79.14
2018-05-10T02:07:38.326Z,80.25
2018-05-10T02:10:06.069Z,81.16
2018-05-10T02:12:33.629Z,80.40
2018-05-10T02:15:01.205Z,80.12
2018-05-10T02:17:28.737Z,80.18
2018-05-10T02:19:56.333Z,80.29
2018-05-10T02:22:24.018Z,80.87
2018-05-10T02:24:51.591Z,81.71
2018-05-10T02:27:19.118Z,82.35
2018-05-10T02:29:46.742Z,82.39
2018-05-10T02:32:14.300Z,82.16
2018-05-10T02:34:41.950Z,80.75
2018-05-10T02:37:09.521Z,81.39
2018-05-10T02:39:37.139Z,83.24
2018-05-10T02:42:04.754Z,80.90
2018-05-10T02:44:32.307Z,80.44
2018-05-10T02:46:59.910Z,80.76
2018-05-10T02:49:27.461Z,81.14
2018-05-10T02:51:55.085Z,79.90
2018-05-10T02:54:22.644Z,80.01
2018-05-10T02:56:50.217Z,80.82
2018-05-10T02:59:17.748Z,81.15
2018-05-10T03:01:45.426Z,81.82
2018-05-10T03:04:12.978Z,81.63
2018-05-10T03:06:40.648Z,81.97
2018-05-10T03:09:08.204Z,81.48
2018-05-10T03:11:35.880Z,80.06
2018-05-10T03:14:03.482Z,82.03
2018-05-10T03:16:31.061Z,80.88
2018-05-10T03:18:58.586Z,80.66
2018-05-10T03:21:26.166Z,81.42
2018-05-10T03:23:53.768Z,83.05
2018-05-10T03:26:21.392Z,80.99
2018-05-10T03:28:48.922Z,80.74
2018-05-10T03:31:16.851Z,80.63
2018-05-10T03:33:44.374Z,80.20
2018-05-10T03:36:12.401Z,80.06
2018-05-10T03:38:39.958Z,80.50
2018-05-10T03:41:07.557Z,79.67
2018-05-10T03:43:35.109Z,80.78
2018-05-10T03:46:02.685Z,83.65
2018-05-10T03:48:30.212Z,82.26
2018-05-10T03:50:57.794Z,81.12
2018-05-10T03:53:25.414Z,80.97
2018-05-10T03:55:52.999Z,81.02
2018-05-10T03:58:20.626Z,80.11
2018-05-10T04:00:48.287Z,79.58
2018-05-10T04:03:51.379Z,79.62
2018-05-10T04:06:30.710Z,79.30
2018-05-10T04:09:10.233Z,79.65
2018-05-10T04:11:37.931Z,79.47
2018-05-10T04:14:05.486Z,79.47
2018-05-10T04:16:33.037Z,79.51
2018-05-10T04:19:00.597Z,79.01
2018-05-10T04:21:28.256Z,79.10
2018-05-10T04:23:55.817Z,79.06
2018-05-10T04:26:23.376Z,79.25
2018-05-10T04:28:51.026Z,79.30
2018-05-10T04:31:18.674Z,79.08
2018-05-10T04:33:46.262Z,79.11
2018-05-10T04:36:14.125Z,79.55
2018-05-10T04:38:41.803Z,79.45
2018-05-10T04:41:09.362Z,78.66
2018-05-10T04:43:36.967Z,79.17
2018-05-10T04:46:04.516Z,79.08
2018-05-10T04:48:32.069Z,79.07
2018-05-10T04:50:59.602Z,78.95
2018-05-10T04:53:27.176Z,78.45
2018-05-10T04:55:54.771Z,78.44
2018-05-10T04:58:22.377Z,78.57
2018-05-10T05:00:49.906Z,78.83
2018-05-10T05:03:17.646Z,78.50
2018-05-10T05:05:45.257Z,78.10
2018-05-10T05:08:13.514Z,78.61
2018-05-10T05:10:41.192Z,77.62
2018-05-10T05:13:08.853Z,78.18
2018-05-10T05:15:36.392Z,77.79
2018-05-10T05:18:03.970Z,78.04
2018-05-10T05:20:31.498Z,77.84
2018-05-10T05:22:59.077Z,77.65
2018-05-10T05:25:26.601Z,77.74
2018-05-10T05:27:54.156Z,77.65
2018-05-10T05:30:21.682Z,77.27
2018-05-10T05:32:49.274Z,77.17
2018-05-10T05:35:16.809Z,77.14
2018-05-10T05:37:44.382Z,76.53
2018-05-10T05:40:11.942Z,76.34
2018-05-10T05:42:39.515Z,76.63
2018-05-10T05:45:07.036Z,77.03
2018-05-10T05:47:34.620Z,76.64
2018-05-10T05:50:05.173Z,76.84
2018-05-10T05:52:34.724Z,76.48
2018-05-10T05:55:03.772Z,77.00
2018-05-10T05:57:31.258Z,76.91
2018-05-10T05:59:58.831Z,76.75
2018-05-10T06:02:26.495Z,76.22
2018-05-10T06:04:54.566Z,76.01
2018-05-10T06:07:22.091Z,76.08
2018-05-10T06:09:49.639Z,76.51
2018-05-10T06:12:17.171Z,76.35
2018-05-10T06:14:44.805Z,75.62
2018-05-10T06:17:12.773Z,75.83
2018-05-10T06:19:40.549Z,75.09
2018-05-10T06:22:08.202Z,74.82
2018-05-10T06:24:35.754Z,75.80
2018-05-10T06:27:03.318Z,75.44
2018-05-10T06:29:30.907Z,75.70
2018-05-10T06:31:58.541Z,76.34
2018-05-10T06:34:26.193Z,76.14
2018-05-10T06:36:53.714Z,76.12
2018-05-10T06:39:21.321Z,75.87
2018-05-10T06:41:48.845Z,75.70
2018-05-10T06:44:16.398Z,76.28
2018-05-10T06:46:44.032Z,76.36
2018-05-10T06:49:11.630Z,77.06
2018-05-10T06:51:39.178Z,76.74
2018-05-10T06:54:06.886Z,76.77
2018-05-10T06:56:34.443Z,76.52
2018-05-10T06:59:02.015Z,77.11
2018-05-10T07:01:29.562Z,77.38
2018-05-10T07:03:57.240Z,77.71
2018-05-10T07:06:24.770Z,77.90
2018-05-10T07:08:52.345Z,78.23
2018-05-10T07:11:19.869Z,78.72
2018-05-10T07:13:47.398Z,78.27
2018-05-10T07:16:16.700Z,78.41
2018-05-10T07:18:44.322Z,77.99
2018-05-10T07:21:11.985Z,78.33
2018-05-10T07:23:40.006Z,77.73
2018-05-10T07:26:07.561Z,77.14
2018-05-10T07:28:35.138Z,77.28
2018-05-10T07:31:02.714Z,76.44
2018-05-10T07:33:30.243Z,76.25
2018-05-10T07:35:57.857Z,75.43
2018-05-10T07:38:25.413Z,74.12
2018-05-10T07:40:52.977Z,73.35
2018-05-10T07:43:20.525Z,72.92
2018-05-10T07:45:48.078Z,72.89
2018-05-10T07:48:15.652Z,72.58
2018-05-10T07:50:43.258Z,72.66
2018-05-10T07:53:10.895Z,73.12
2018-05-10T07:55:38.437Z,74.27
2018-05-10T07:58:05.966Z,74.67
2018-05-10T08:00:33.858Z,76.49
2018-05-10T08:03:01.419Z,77.69
2018-05-10T08:05:29.121Z,79.12
2018-05-10T08:07:57.096Z,79.65
2018-05-10T08:10:24.814Z,78.91
2018-05-10T08:12:52.898Z,79.21
2018-05-10T08:15:21.153Z,79.34
2018-05-10T08:17:48.982Z,80.00
2018-05-10T08:20:16.916Z,78.91
2018-05-10T08:22:44.967Z,79.45
2018-05-10T08:25:12.564Z,80.48
2018-05-10T08:27:56.066Z,81.36
2018-05-10T08:30:23.941Z,81.45
2018-05-10T08:32:51.701Z,80.00
2018-05-10T08:35:19.342Z,77.76
2018-05-10T08:37:47.273Z,79.86
2018-05-10T08:40:16.047Z,80.57
2018-05-10T08:42:43.578Z,81.34
2018-05-10T08:45:11.207Z,80.46
2018-05-10T08:47:39.097Z,80.32
2018-05-10T08:50:06.687Z,78.26
2018-05-10T08:52:34.868Z,77.95
2018-05-10T08:55:02.567Z,76.06
2018-05-10T08:57:30.646Z,72.56
2018-05-10T08:59:58.238Z,71.80
2018-05-10T09:02:26.203Z,75.19
2018-05-10T09:04:54.479Z,78.02
2018-05-10T09:07:22.425Z,80.35
2018-05-10T09:09:50.747Z,82.24
2018-05-10T09:12:18.798Z,83.20
2018-05-10T09:14:50.159Z,83.82
2018-05-10T09:17:18.310Z,83.47
2018-05-10T09:19:47.060Z,82.85
2018-05-10T09:22:14.914Z,82.50
2018-05-10T09:24:43.035Z,82.88
2018-05-10T09:27:10.868Z,82.29
2018-05-10T09:29:39.244Z,80.22
2018-05-10T09:32:07.773Z,80.00
2018-05-10T09:34:35.426Z,81.59
2018-05-10T09:37:03.086Z,82.07
2018-05-10T09:39:31.002Z,83.05
2018-05-10T09:41:59.058Z,80.92
2018-05-10T09:44:26.649Z,80.18
2018-05-10T09:46:54.963Z,80.00
2018-05-10T09:49:22.489Z,78.67
2018-05-10T09:51:50.374Z,78.37
2018-05-10T09:54:17.970Z,77.86
2018-05-10T09:56:46.545Z,76.94
2018-05-10T09:59:15.410Z,76.25
2018-05-10T10:01:42.998Z,75.58
2018-05-10T10:04:10.756Z,74.99
2018-05-10T10:06:38.409Z,75.07
2018-05-10T10:09:05.967Z,75.10
2018-05-10T10:11:33.654Z,74.06
2018-05-10T10:14:01.295Z,71.61
2018-05-10T10:16:28.886Z,74.16
2018-05-10T10:18:56.616Z,73.32
2018-05-10T10:21:24.166Z,70.93
2018-05-10T10:23:51.736Z,71.18
2018-05-10T10:26:19.295Z,70.28
2018-05-10T10:28:49.474Z,68.59
2018-05-10T10:31:17.601Z,69.25
2018-05-10T10:33:45.146Z,69.41
2018-05-10T10:36:13.024Z,69.28
2018-05-10T10:38:41.458Z,71.12
2018-05-10T10:41:10.049Z,70.59
2018-05-10T10:43:38.455Z,72.10
2018-05-10T10:46:06.016Z,67.95
2018-05-10T10:48:34.396Z,69.72
2018-05-10T10:51:02.365Z,69.34
2018-05-10T10:53:30.030Z,68.18
2018-05-10T10:55:58.611Z,65.90
2018-05-10T10:58:27.249Z,67.09
2018-05-10T11:00:55.428Z,67.60
2018-05-10T11:03:23.629Z,65.19
2018-05-10T11:05:51.554Z,63.96
2018-05-10T11:08:20.234Z,66.29
2018-05-10T11:10:47.758Z,65.20
2018-05-10T11:13:15.480Z,65.95
2018-05-10T11:15:42.978Z,64.48
2018-05-10T11:18:10.620Z,65.08
2018-05-10T11:20:38.198Z,63.15
2018-05-10T11:23:05.749Z,63.06
2018-05-10T11:25:33.326Z,63.92
2018-05-10T11:28:00.876Z,61.46
2018-05-10T11:35:29.195Z,60.65
2018-05-10T11:37:56.851Z,59.40
2018-05-10T11:40:24.385Z,61.33
2018-05-10T11:42:51.940Z,59.13
2018-05-10T11:45:19.539Z,59.91
2018-05-10T11:47:47.169Z,61.66
2018-05-10T11:50:14.717Z,62.98
2018-05-10T11:52:42.309Z,62.02
2018-05-10T11:55:09.868Z,63.00
2018-05-10T11:57:37.426Z,63.38
2018-05-10T12:00:04.953Z,61.99
2018-05-10T12:02:32.579Z,61.61
2018-05-10T12:05:00.110Z,60.57
2018-05-10T12:07:27.774Z,58.59
2018-05-10T12:09:55.315Z,58.15
2018-05-10T12:12:24.173Z,58.94
2018-05-10T12:14:52.392Z,58.64
2018-05-10T12:17:20.470Z,57.47
2018-05-10T12:19:48.169Z,58.30
2018-05-10T12:22:16.724Z,58.49
2018-05-10T12:24:44.783Z,56.20
2018-05-10T12:27:12.753Z,56.46
2018-05-10T12:29:40.497Z,55.54
2018-05-10T12:32:08.837Z,55.18
2018-05-10T12:34:36.387Z,55.38
2018-05-10T12:37:04.613Z,55.15
2018-05-10T12:39:32.221Z,54.58
2018-05-10T12:41:59.952Z,54.49
2018-05-10T12:44:27.946Z,55.00
2018-05-10T12:46:56.821Z,55.78
2018-05-10T12:49:24.475Z,54.74
2018-05-10T12:51:52.626Z,54.43
2018-05-10T12:54:20.929Z,55.47
2018-05-10T12:56:49.005Z,56.85
2018-05-10T12:59:16.967Z,55.09
2018-05-10T13:01:44.521Z,54.84
2018-05-10T13:04:12.607Z,55.14
2018-05-10T13:06:40.264Z,55.11
2018-05-10T13:09:07.840Z,54.92
2018-05-10T13:11:35.488Z,55.71
2018-05-10T13:14:03.243Z,54.97
2018-05-10T13:16:30.836Z,56.30
2018-05-10T13:18:58.527Z,55.65
2018-05-10T13:21:26.052Z,54.11
2018-05-10T13:23:54.096Z,55.11
2018-05-10T13:26:22.003Z,55.03
2018-05-10T13:28:50.003Z,54.99
2018-05-10T13:31:17.514Z,54.67
2018-05-10T13:33:45.289Z,55.09
2018-05-10T13:36:13.336Z,54.43
2018-05-10T13:38:41.215Z,55.12
2018-05-10T13:41:08.895Z,54.05
2018-05-10T13:43:36.798Z,53.59
2018-05-10T13:46:04.500Z,54.27
2018-05-10T13:48:32.354Z,54.00
2018-05-10T13:51:00.426Z,54.35
2018-05-10T13:53:28.110Z,54.75
2018-05-10T13:55:56.061Z,54.05
2018-05-10T13:58:24.260Z,53.84
2018-05-10T14:00:52.068Z,54.93
2018-05-10T14:03:19.665Z,53.75
2018-05-10T14:05:47.446Z,53.90
2018-05-10T14:08:16.491Z,53.55
2018-05-10T14:10:47.598Z,52.82
2018-05-10T14:13:15.723Z,53.55
2018-05-10T14:15:43.746Z,52.97
2018-05-10T14:18:12.428Z,52.01
2018-05-10T14:20:40.340Z,50.45
2018-05-10T14:23:07.883Z,50.91
2018-05-10T14:25:36.164Z,51.07
2018-05-10T14:28:03.854Z,50.75
2018-05-10T14:30:32.140Z,50.84
2018-05-10T14:32:59.692Z,50.50
2018-05-10T14:35:27.247Z,50.21
2018-05-10T14:37:54.807Z,50.96
2018-05-10T14:40:22.779Z,51.42
2018-05-10T14:42:50.406Z,51.08
2018-05-10T14:45:18.378Z,51.19
2018-05-10T14:47:45.929Z,50.91
2018-05-10T14:50:14.249Z,51.46
2018-05-10T14:55:23.833Z,49.47
2018-05-10T14:57:52.386Z,49.47
2018-05-10T15:00:19.967Z,50.51
2018-05-10T15:02:47.822Z,50.21
2018-05-10T15:05:15.770Z,50.49
2018-05-10T15:07:43.945Z,50.57
2018-05-10T15:10:12.122Z,52.24
2018-05-10T15:12:41.459Z,50.12
2018-05-10T15:15:09.296Z,50.30
2018-05-10T15:17:36.911Z,52.16
2018-05-10T15:20:04.836Z,53.15
2018-05-10T15:22:32.408Z,52.93
2018-05-10T15:25:00.018Z,53.59
2018-05-10T15:27:27.602Z,55.46
2018-05-10T15:29:55.243Z,55.54
2018-05-10T15:32:23.144Z,55.57
2018-05-10T15:34:51.970Z,55.60
2018-05-10T15:37:20.046Z,55.41
2018-05-10T15:39:47.961Z,55.65
2018-05-10T15:42:15.766Z,56.17
2018-05-10T15:44:43.857Z,56.56
2018-05-10T15:47:12.914Z,56.82
2018-05-10T15:49:43.779Z,57.39
2018-05-10T15:52:12.061Z,56.90
2018-05-10T15:54:39.611Z,56.97
2018-05-10T15:57:07.436Z,57.00
2018-05-10T15:59:35.300Z,56.49
2018-05-10T16:02:02.973Z,56.17
2018-05-10T16:04:31.313Z,56.69
2018-05-10T16:06:59.002Z,56.71
2018-05-10T16:09:27.080Z,55.47
2018-05-10T16:11:54.679Z,55.46
2018-05-10T16:14:22.295Z,55.00
2018-05-10T16:16:50.786Z,55.74
2018-05-10T16:19:18.387Z,55.96
2018-05-10T16:21:45.963Z,55.48
2018-05-10T16:24:14.068Z,55.51
2018-05-10T16:26:41.614Z,55.65
2018-05-10T16:29:09.198Z,55.88
2018-05-10T16:31:36.851Z,55.55
2018-05-10T16:34:04.513Z,55.15
2018-05-10T16:36:32.175Z,55.31
2018-05-10T16:38:59.837Z,55.91
2018-05-10T16:41:28.010Z,55.62
2018-05-10T16:43:55.569Z,55.77
2018-05-10T16:46:24.484Z,55.68
2018-05-10T16:48:52.428Z,56.77
2018-05-10T16:51:20.091Z,56.61
2018-05-10T16:53:48.221Z,57.00
2018-05-10T16:56:16.189Z,56.42
2018-05-10T16:58:43.725Z,57.61
2018-05-10T17:01:11.354Z,57.50
2018-05-10T17:03:42.022Z,57.07
2018-05-10T17:06:10.043Z,57.70
2018-05-10T17:08:38.153Z,58.04
2018-05-10T17:11:06.062Z,57.70
2018-05-10T17:13:33.760Z,58.01
2018-05-10T17:16:01.609Z,57.97
2018-05-10T17:18:29.320Z,57.92
2018-05-10T17:20:59.820Z,57.82
2018-05-10T17:23:30.903Z,57.54
2018-05-10T17:25:58.567Z,57.41
2018-05-10T17:28:27.297Z,57.59
2018-05-10T17:30:54.960Z,56.03
2018-05-10T17:33:22.449Z,54.77
2018-05-10T17:35:50.457Z,54.55
2018-05-10T17:38:19.227Z,53.43
2018-05-10T17:40:46.913Z,53.81
2018-05-10T17:43:14.518Z,55.72
2018-05-10T17:45:42.479Z,55.84
2018-05-10T17:48:10.431Z,52.60
2018-05-10T17:50:37.970Z,51.62
2018-05-10T17:53:06.270Z,54.43
2018-05-10T17:55:33.944Z,53.06
2018-05-10T17:58:01.605Z,56.44
2018-05-10T18:00:29.648Z,56.92
2018-05-10T18:02:57.207Z,56.53
2018-05-10T18:05:24.731Z,56.69
2018-05-10T18:07:53.381Z,57.05
2018-05-10T18:10:20.986Z,57.19
2018-05-10T18:12:48.605Z,57.71
2018-05-10T18:15:16.142Z,57.94
2018-05-10T18:17:44.565Z,58.26
2018-05-10T18:20:12.496Z,58.45
2018-05-10T18:22:40.119Z,58.90
2018-05-10T18:25:07.849Z,58.86
2018-05-10T18:27:36.474Z,59.25
2018-05-10T18:30:04.388Z,59.32
2018-05-10T18:32:32.058Z,59.59
2018-05-10T18:35:00.528Z,60.37
2018-05-10T18:37:28.191Z,60.36
2018-05-10T18:39:55.713Z,61.25
2018-05-10T18:42:23.266Z,61.20
2018-05-10T18:44:50.817Z,61.22
2018-05-10T18:47:18.429Z,61.38
2018-05-10T18:49:45.945Z,61.67
2018-05-10T18:52:13.501Z,61.10
2018-05-10T18:54:41.068Z,61.23
2018-05-10T18:57:08.604Z,61.39
2018-05-10T18:59:36.133Z,62.10
2018-05-10T19:02:03.686Z,61.99
2018-05-10T19:04:31.208Z,63.53
2018-05-10T19:07:01.736Z,64.61
2018-05-10T19:09:29.489Z,64.55
2018-05-10T19:11:57.061Z,64.52
2018-05-10T19:14:24.594Z,64.60
2018-05-10T19:16:52.215Z,65.02
2018-05-10T19:19:20.295Z,64.11
2018-05-10T19:21:47.817Z,63.75
2018-05-10T19:24:15.389Z,63.84
2018-05-10T19:26:42.968Z,63.73
2018-05-10T19:29:10.577Z,64.00
2018-05-10T19:31:38.062Z,64.10
2018-05-10T19:34:05.612Z,64.13
2018-05-10T19:36:33.139Z,64.62
2018-05-10T19:39:00.687Z,64.41
2018-05-10T19:41:28.220Z,63.58
2018-05-10T19:43:55.795Z,63.72
2018-05-10T19:46:25.501Z,64.07
2018-05-10T19:48:53.049Z,64.58
2018-05-10T19:51:20.612Z,65.04
2018-05-10T19:53:48.180Z,66.52
2018-05-10T19:56:15.705Z,65.32
2018-05-10T19:58:43.265Z,65.88
2018-05-10T20:01:10.847Z,64.85
2018-05-10T20:03:38.441Z,64.43
2018-05-10T20:06:05.967Z,64.51
2018-05-10T20:08:33.681Z,64.77
2018-05-10T20:11:01.197Z,63.27
2018-05-10T20:13:28.850Z,62.71
2018-05-10T20:15:56.408Z,62.74
2018-05-10T20:18:23.978Z,61.64
2018-05-10T20:20:51.526Z,61.53
2018-05-10T20:23:19.110Z,62.28
2018-05-10T20:25:46.658Z,61.70
2018-05-10T20:28:14.386Z,61.64
2018-05-10T20:30:41.863Z,61.67
2018-05-10T20:33:09.530Z,61.04
2018-05-10T20:35:37.269Z,61.05
2018-05-10T20:38:04.841Z,60.53
2018-05-10T20:40:32.367Z,61.05
2018-05-10T20:42:59.954Z,60.33
2018-05-10T20:45:27.479Z,61.44
2018-05-10T20:47:55.029Z,61.50
2018-05-10T20:50:22.662Z,61.27
2018-05-10T20:52:51.086Z,61.55
2018-05-10T20:55:18.881Z,61.91
2018-05-10T20:57:46.457Z,62.25
2018-05-10T21:00:14.014Z,61.97
2018-05-10T21:02:41.566Z,61.89
2018-05-10T21:05:09.144Z,62.01
2018-05-10T21:07:36.798Z,62.07
2018-05-10T21:10:04.475Z,62.36
2018-05-10T21:12:42.871Z,62.37
2018-05-10T21:15:10.452Z,62.29
2018-05-10T21:17:38.000Z,62.65
2018-05-10T21:20:05.650Z,62.88
2018-05-10T21:22:33.213Z,62.50
2018-05-10T21:25:00.875Z,62.47
2018-05-10T21:27:28.435Z,63.58
2018-05-10T21:29:56.097Z,63.47
2018-05-10T21:32:23.657Z,63.19
2018-05-10T21:34:51.250Z,63.63
2018-05-10T21:37:18.777Z,62.96
2018-05-10T21:39:46.355Z,62.69
2018-05-10T21:42:13.877Z,63.07
2018-05-10T21:44:41.614Z,62.81
2018-05-10T21:47:09.231Z,64.04
2018-05-10T21:49:48.553Z,63.68
2018-05-10T21:52:16.091Z,63.84
2018-05-10T21:54:43.683Z,63.96
2018-05-10T21:57:11.217Z,64.79
2018-05-10T21:59:38.794Z,64.77
2018-05-10T22:02:06.351Z,64.97
2018-05-10T22:04:33.914Z,65.06
2018-05-10T22:07:01.482Z,64.82
2018-05-10T22:09:29.073Z,65.11
2018-05-10T22:11:56.671Z,64.64
2018-05-10T22:14:24.233Z,64.92
2018-05-10T22:16:51.811Z,66.04
2018-05-10T22:19:19.474Z,66.07
2018-05-10T22:21:47.033Z,65.47
2018-05-10T22:24:14.615Z,66.55
2018-05-10T22:26:44.837Z,66.79
2018-05-10T22:29:13.397Z,67.44
2018-05-10T22:31:41.372Z,68.31
2018-05-10T22:34:09.950Z,68.11
2018-05-10T22:36:38.738Z,68.29
2018-05-10T22:39:06.503Z,68.42
2018-05-10T22:41:34.840Z,68.05
2018-05-10T22:44:03.705Z,67.19
2018-05-10T22:46:32.557Z,66.70
2018-05-10T22:49:01.350Z,67.63
2018-05-10T22:51:29.944Z,68.01
2018-05-10T22:53:57.901Z,68.90
2018-05-10T22:56:25.779Z,69.45
2018-05-10T22:58:55.378Z,68.19
2018-05-10T23:01:25.496Z,69.19
2018-05-10T23:03:53.263Z,69.11
2018-05-10T23:06:21.552Z,68.98
2018-05-10T23:08:49.084Z,69.06
2018-05-10T23:11:17.958Z,70.00
2018-05-10T23:13:48.820Z,69.64
2018-05-10T23:16:17.732Z,70.13
2018-05-10T23:18:45.973Z,70.98
2018-05-10T23:21:13.870Z,70.95
2018-05-10T23:23:41.468Z,70.55
2018-05-10T23:26:09.076Z,70.82
2018-05-10T23:28:37.972Z,70.98
2018-05-10T23:31:05.597Z,71.57
2018-05-10T23:33:34.827Z,72.43
2018-05-10T23:36:03.205Z,74.19
2018-05-10T23:38:30.906Z,72.86
2018-05-10T23:40:59.044Z,73.95
2018-05-10T23:43:31.285Z,73.38
2018-05-10T23:45:59.897Z,74.20
2018-05-10T23:48:28.200Z,74.40
2018-05-10T23:50:55.745Z,74.36
2018-05-10T23:53:23.802Z,74.34
2018-05-10T23:55:51.671Z,75.19
2018-05-10T23:58:19.754Z,74.02
